Time,TemperatureF,DewpointF,PressureIn,WindDirection,WindDirectionDegrees,WindSpeedMPH,WindSpeedGustMPH,Humidity,HourlyPrecipIn,Conditions,Clouds,dailyrainin,SoftwareType,DateUTC
2013-04-30 02:00:00,41.0,29.0,30.32,NW,310,22.0,-999.0,62,-99.99,,,-99.99,,2013-04-30 10:00:00,
2013-04-30 02:52:00,41.0,29.0,30.32,NW,310,22.0,-999.0,62,-99.99,,,-99.99,,2013-04-30 10:52:00,
2013-04-30 04:00:00,41.0,31.0,30.33,WNW,300,21.0,-999.0,66,-99.99,,,-99.99,,2013-04-30 12:00:00,
2013-04-30 04:41:00,41.0,31.0,30.33,WNW,300,21.0,-999.0,66,-99.99,,,-99.99,,2013-04-30 12:41:00,
2013-04-30 04:51:00,41.0,31.0,30.33,WNW,300,21.0,-999.0,66,-99.99,,,-99.99,,2013-04-30 12:51:00,
2013-04-30 06:00:00,42.0,29.0,30.34,NNW,330,17.0,-999.0,58,-99.99,,,-99.99,,2013-04-30 14:00:00,
2013-04-30 06:31:00,42.0,29.0,30.34,NNW,330,17.0,-999.0,58,-99.99,,,-99.99,,2013-04-30 14:31:00,
2013-04-30 06:41:00,42.0,29.0,30.34,NNW,330,17.0,-999.0,58,-99.99,,,-99.99,,2013-04-30 14:41:00,
2013-04-30 06:51:00,42.0,29.0,30.34,NNW,330,17.0,-999.0,58,-99.99,,,-99.99,,2013-04-30 14:51:00,
2013-04-30 09:00:00,39.0,34.0,30.39,ENE,60,7.0,-999.0,83,-99.99,,,-99.99,,2013-04-30 17:00:00,
2013-04-30 09:32:00,39.0,34.0,30.39,ENE,60,7.0,-999.0,83,-99.99,,,-99.99,,2013-04-30 17:32:00,
2013-04-30 09:41:00,39.0,34.0,30.39,ENE,60,7.0,-999.0,83,-99.99,,,-99.99,,2013-04-30 17:41:00,
2013-04-30 09:52:00,39.0,34.0,30.39,ENE,60,7.0,-999.0,83,-99.99,,,-99.99,,2013-04-30 17:52:00,
2013-04-30 12:00:00,45.0,30.0,30.43,NNE,20,3.0,-999.0,54,-99.99,,,-99.99,,2013-04-30 20:00:00,
2013-04-30 12:21:00,45.0,30.0,30.43,NNE,20,3.0,-999.0,54,-99.99,,,-99.99,,2013-04-30 20:21:00,
2013-04-30 12:32:00,45.0,30.0,30.43,NNE,20,3.0,-999.0,54,-99.99,,,-99.99,,2013-04-30 20:32:00,
2013-04-30 12:42:00,45.0,30.0,30.43,NNE,20,3.0,-999.0,54,-99.99,,,-99.99,,2013-04-30 20:42:00,
2013-04-30 12:52:00,45.0,30.0,30.43,NNE,20,3.0,-999.0,54,-99.99,,,-99.99,,2013-04-30 20:52:00,
2013-04-30 14:00:00,44.0,34.0,30.45,WNW,290,11.0,-999.0,67,-99.99,,,-99.99,,2013-04-30 22:00:00,
2013-04-30 22:00:00,47.0,33.0,30.45,West,270,7.0,-999.0,58,-99.99,,,-99.99,,2013-05-01 06:00:00,
2013-04-30 22:21:00,47.0,33.0,30.45,West,270,7.0,-999.0,58,-99.99,,,-99.99,,2013-05-01 06:21:00,
2013-04-30 22:32:00,47.0,33.0,30.45,West,270,7.0,-999.0,58,-99.99,,,-99.99,,2013-05-01 06:32:00,
2013-04-30 22:41:00,47.0,33.0,30.45,West,270,7.0,-999.0,58,-99.99,,,-99.99,,2013-05-01 06:41:00,
2013-04-30 22:51:00,47.0,33.0,30.45,West,270,7.0,-999.0,58,-99.99,,,-99.99,,2013-05-01 06:51:00,